createdAt,value
2017-11-17T00:00:33.293Z,38.90
2017-11-17T00:01:33.916Z,38.81
2017-11-17T00:02:34.567Z,38.81
2017-11-17T00:03:35.172Z,38.62
2017-11-17T00:04:35.781Z,38.90
2017-11-17T00:05:36.384Z,38.71
2017-11-17T00:06:36.983Z,38.81
2017-11-17T00:07:37.586Z,38.90
2017-11-17T00:08:38.199Z,38.81
2017-11-17T00:09:38.795Z,38.90
2017-11-17T00:10:39.405Z,38.71
2017-11-17T00:11:40.011Z,39.00
2017-11-17T00:12:40.617Z,39.75
2017-11-17T00:13:41.226Z,39.45
2017-11-17T00:14:41.833Z,39.36
2017-11-17T00:15:42.438Z,39.17
2017-11-17T00:16:43.053Z,39.17
2017-11-17T00:17:43.688Z,39.26
2017-11-17T00:18:44.290Z,39.26
2017-11-17T00:19:44.895Z,39.26
2017-11-17T00:20:45.500Z,39.07
2017-11-17T00:21:46.133Z,39.17
2017-11-17T00:22:46.739Z,39.26
2017-11-17T00:23:47.348Z,39.07
2017-11-17T00:24:47.951Z,39.26
2017-11-17T00:25:48.563Z,39.45
2017-11-17T00:26:49.199Z,39.45
2017-11-17T00:27:49.809Z,39.54
2017-11-17T00:28:50.419Z,39.54
2017-11-17T00:29:51.027Z,39.54
2017-11-17T00:30:51.661Z,39.45
2017-11-17T00:31:52.266Z,39.45
2017-11-17T00:32:52.890Z,39.26
2017-11-17T00:33:53.483Z,39.26
2017-11-17T00:34:54.091Z,39.45
2017-11-17T00:35:54.692Z,39.36
2017-11-17T00:36:55.297Z,39.45
2017-11-17T00:37:55.903Z,39.07
2017-11-17T00:38:56.509Z,39.17
2017-11-17T00:39:57.121Z,39.26
2017-11-17T00:40:57.723Z,38.98
2017-11-17T00:41:58.327Z,39.17
2017-11-17T00:42:58.962Z,39.07
2017-11-17T00:43:59.575Z,39.26
2017-11-17T00:45:00.181Z,39.26
2017-11-17T00:46:00.782Z,39.36
2017-11-17T00:47:01.393Z,39.36
2017-11-17T00:48:01.993Z,39.45
2017-11-17T00:49:02.599Z,39.54
2017-11-17T00:50:03.208Z,39.64
2017-11-17T00:51:03.847Z,38.98
2017-11-17T00:52:04.461Z,38.98
2017-11-17T00:53:05.055Z,38.90
2017-11-17T00:54:05.660Z,38.90
2017-11-17T00:55:06.273Z,38.79
2017-11-17T00:56:06.875Z,38.79
2017-11-17T00:57:07.485Z,38.90
2017-11-17T00:58:08.091Z,38.81
2017-11-17T00:59:08.724Z,38.71
2017-11-17T01:00:09.328Z,38.81
2017-11-17T01:01:09.933Z,38.71
2017-11-17T01:02:10.572Z,38.81
2017-11-17T01:03:11.216Z,38.79
2017-11-17T01:04:11.814Z,38.79
2017-11-17T01:05:12.419Z,38.79
2017-11-17T01:06:13.028Z,38.79
2017-11-17T01:07:13.662Z,38.88
2017-11-17T01:08:14.276Z,38.79
2017-11-17T01:09:14.871Z,38.98
2017-11-17T01:10:15.476Z,38.88
2017-11-17T01:11:16.083Z,38.88
2017-11-17T01:12:16.687Z,38.98
2017-11-17T01:13:17.291Z,38.88
2017-11-17T01:14:17.898Z,38.88
2017-11-17T01:15:18.500Z,38.69
2017-11-17T01:16:19.111Z,38.98
2017-11-17T01:17:19.719Z,38.88
2017-11-17T01:18:20.327Z,38.88
2017-11-17T01:19:20.935Z,38.69
2017-11-17T01:20:21.576Z,38.60
2017-11-17T01:21:22.177Z,38.60
2017-11-17T01:22:22.783Z,38.60
2017-11-17T01:23:23.393Z,38.60
2017-11-17T01:24:23.995Z,38.60
2017-11-17T01:25:24.605Z,38.60
2017-11-17T01:26:25.207Z,38.60
2017-11-17T01:27:25.812Z,38.79
2017-11-17T01:28:26.448Z,38.60
2017-11-17T01:29:27.052Z,38.60
2017-11-17T01:30:27.687Z,38.79
2017-11-17T01:31:28.296Z,38.22
2017-11-17T01:32:28.932Z,38.41
2017-11-17T01:33:29.535Z,38.41
2017-11-17T01:34:30.140Z,38.50
2017-11-17T01:35:30.743Z,38.69
2017-11-17T01:36:31.346Z,38.50
2017-11-17T01:37:31.957Z,38.31
2017-11-17T01:38:32.564Z,38.41
2017-11-17T01:39:33.172Z,38.50
2017-11-17T01:40:33.776Z,38.60
2017-11-17T01:41:34.412Z,38.50
2017-11-17T01:42:35.017Z,38.41
2017-11-17T01:43:35.623Z,38.31
2017-11-17T01:44:36.227Z,38.12
2017-11-17T01:45:36.838Z,38.41
2017-11-17T01:46:37.473Z,38.31
2017-11-17T01:47:38.109Z,38.22
2017-11-17T01:48:38.716Z,38.33
2017-11-17T01:49:39.327Z,38.31
2017-11-17T01:50:39.963Z,38.12
2017-11-17T01:51:40.566Z,38.24
2017-11-17T01:52:41.177Z,38.14
2017-11-17T01:53:41.780Z,38.03
2017-11-17T01:54:42.389Z,38.14
2017-11-17T01:55:42.992Z,37.95
2017-11-17T01:56:43.597Z,37.95
2017-11-17T01:57:44.207Z,38.05
2017-11-17T01:58:44.811Z,37.76
2017-11-17T01:59:45.417Z,37.67
2017-11-17T02:00:46.022Z,37.86
2017-11-17T02:01:46.659Z,37.76
2017-11-17T02:02:47.270Z,37.57
2017-11-17T02:03:47.871Z,37.67
2017-11-17T02:04:48.476Z,37.57
2017-11-17T02:05:49.086Z,37.57
2017-11-17T02:06:49.687Z,37.48
2017-11-17T02:07:50.300Z,37.57
2017-11-17T02:08:50.904Z,37.48
2017-11-17T02:09:51.506Z,37.57
2017-11-17T02:10:52.109Z,37.18
2017-11-17T02:11:52.721Z,37.18
2017-11-17T02:12:53.320Z,37.55
2017-11-17T02:13:53.933Z,37.55
2017-11-17T02:14:54.534Z,37.55
2017-11-17T02:15:55.139Z,37.46
2017-11-17T02:16:55.745Z,37.65
2017-11-17T02:17:56.350Z,37.55
2017-11-17T02:18:56.966Z,37.65
2017-11-17T02:19:57.567Z,37.55
2017-11-17T02:20:58.172Z,37.65
2017-11-17T02:21:58.783Z,37.65
2017-11-17T02:22:59.385Z,37.55
2017-11-17T02:23:59.989Z,37.55
2017-11-17T02:25:00.592Z,37.55
2017-11-17T02:26:01.195Z,37.55
2017-11-17T02:27:01.801Z,37.46
2017-11-17T02:28:02.403Z,37.46
2017-11-17T02:29:03.011Z,37.46
2017-11-17T02:30:03.613Z,37.46
2017-11-17T02:31:04.217Z,37.27
2017-11-17T02:32:04.821Z,37.37
2017-11-17T02:33:05.423Z,37.46
2017-11-17T02:34:06.028Z,37.27
2017-11-17T02:35:06.638Z,37.27
2017-11-17T02:36:07.245Z,37.27
2017-11-17T02:37:07.852Z,36.90
2017-11-17T02:38:08.455Z,36.99
2017-11-17T02:39:09.061Z,36.52
2017-11-17T02:40:09.668Z,36.80
2017-11-17T02:41:10.271Z,36.80
2017-11-17T02:42:10.882Z,36.71
2017-11-17T02:43:11.487Z,36.61
2017-11-17T02:44:12.089Z,36.61
2017-11-17T02:45:12.702Z,36.71
2017-11-17T02:46:13.309Z,36.52
2017-11-17T02:47:13.912Z,36.71
2017-11-17T02:48:14.521Z,36.80
2017-11-17T02:49:15.124Z,36.71
2017-11-17T02:50:15.730Z,36.80
2017-11-17T02:51:16.333Z,37.08
2017-11-17T02:52:16.966Z,36.90
2017-11-17T02:53:17.575Z,36.99
2017-11-17T02:54:18.177Z,36.90
2017-11-17T02:55:18.809Z,37.08
2017-11-17T02:56:19.419Z,36.99
2017-11-17T02:57:20.021Z,36.99
2017-11-17T02:58:20.625Z,36.99
2017-11-17T02:59:21.229Z,37.08
2017-11-17T03:00:21.834Z,36.99
2017-11-17T03:01:22.436Z,37.08
2017-11-17T03:02:23.046Z,37.37
2017-11-17T03:03:23.650Z,37.18
2017-11-17T03:04:24.256Z,37.27
2017-11-17T03:05:24.862Z,37.37
2017-11-17T03:06:25.465Z,37.18
2017-11-17T03:07:26.089Z,37.27
2017-11-17T03:08:26.676Z,37.18
2017-11-17T03:09:27.280Z,37.18
2017-11-17T03:10:27.883Z,37.46
2017-11-17T03:11:28.487Z,37.27
2017-11-17T03:12:29.095Z,37.46
2017-11-17T03:13:29.697Z,37.37
2017-11-17T03:14:30.315Z,37.27
2017-11-17T03:15:30.909Z,37.18
2017-11-17T03:16:31.514Z,37.46
2017-11-17T03:17:32.120Z,37.55
2017-11-17T03:18:32.730Z,37.46
2017-11-17T03:19:33.328Z,37.84
2017-11-17T03:20:33.933Z,37.65
2017-11-17T03:21:34.537Z,37.84
2017-11-17T03:22:35.143Z,37.74
2017-11-17T03:23:35.747Z,37.84
2017-11-17T03:24:36.358Z,37.84
2017-11-17T03:25:36.954Z,37.74
2017-11-17T03:26:37.559Z,37.74
2017-11-17T03:27:38.161Z,37.84
2017-11-17T03:28:38.771Z,37.84
2017-11-17T03:29:39.371Z,38.03
2017-11-17T03:30:39.977Z,37.65
2017-11-17T03:31:40.580Z,37.93
2017-11-17T03:32:41.184Z,38.03
2017-11-17T03:33:41.789Z,37.93
2017-11-17T03:34:42.393Z,38.03
2017-11-17T03:35:42.998Z,37.93
2017-11-17T03:36:43.603Z,38.22
2017-11-17T03:37:44.207Z,38.22
2017-11-17T03:38:44.816Z,37.93
2017-11-17T03:39:45.416Z,37.93
2017-11-17T03:40:46.022Z,38.03
2017-11-17T03:41:46.623Z,37.93
2017-11-17T03:42:47.234Z,38.22
2017-11-17T03:43:47.837Z,38.12
2017-11-17T03:44:48.448Z,38.22
2017-11-17T03:45:49.088Z,38.22
2017-11-17T03:46:49.690Z,38.20
2017-11-17T03:47:50.293Z,38.10
2017-11-17T03:48:50.906Z,38.22
2017-11-17T03:49:51.502Z,38.22
2017-11-17T03:50:52.106Z,38.12
2017-11-17T03:51:52.716Z,38.22
2017-11-17T03:52:53.317Z,38.22
2017-11-17T03:53:53.921Z,38.03
2017-11-17T03:54:54.530Z,37.93
2017-11-17T03:55:55.131Z,38.03
2017-11-17T03:56:55.767Z,38.03
2017-11-17T03:57:56.372Z,38.03
2017-11-17T03:58:56.983Z,37.93
2017-11-17T03:59:57.590Z,37.93
2017-11-17T04:00:58.198Z,37.93
2017-11-17T04:01:58.835Z,37.93
2017-11-17T04:02:59.436Z,38.03
2017-11-17T04:04:00.041Z,37.84
2017-11-17T04:05:00.644Z,37.84
2017-11-17T04:06:01.248Z,37.93
2017-11-17T04:07:01.854Z,37.93
2017-11-17T04:08:02.457Z,38.03
2017-11-17T04:09:03.062Z,37.93
2017-11-17T04:10:03.696Z,38.10
2017-11-17T04:11:04.305Z,38.20
2017-11-17T04:12:04.926Z,38.01
2017-11-17T04:13:05.513Z,38.20
2017-11-17T04:14:06.121Z,38.20
2017-11-17T04:15:06.725Z,38.29
2017-11-17T04:16:07.336Z,38.20
2017-11-17T04:17:07.938Z,38.48
2017-11-17T04:18:08.580Z,38.39
2017-11-17T04:19:09.209Z,38.29
2017-11-17T04:20:09.810Z,38.39
2017-11-17T04:21:10.421Z,38.48
2017-11-17T04:22:11.024Z,38.39
2017-11-17T04:23:11.627Z,38.29
2017-11-17T04:24:12.234Z,38.48
2017-11-17T04:25:12.866Z,38.67
2017-11-17T04:26:13.476Z,38.57
2017-11-17T04:27:14.118Z,38.67
2017-11-17T04:28:14.726Z,38.57
2017-11-17T04:29:15.327Z,38.57
2017-11-17T04:30:15.931Z,38.57
2017-11-17T04:31:16.535Z,38.48
2017-11-17T04:32:17.144Z,38.67
2017-11-17T04:33:17.744Z,38.57
2017-11-17T04:34:18.353Z,38.67
2017-11-17T04:35:18.953Z,38.57
2017-11-17T04:36:19.558Z,38.57
2017-11-17T04:37:20.166Z,38.57
2017-11-17T04:38:20.776Z,38.48
2017-11-17T04:39:21.381Z,38.67
2017-11-17T04:40:21.988Z,38.57
2017-11-17T04:41:22.621Z,38.48
2017-11-17T04:42:23.226Z,38.48
2017-11-17T04:43:23.835Z,38.57
2017-11-17T04:44:24.446Z,38.57
2017-11-17T04:45:25.076Z,38.57
2017-11-17T04:46:25.679Z,38.86
2017-11-17T04:47:26.285Z,38.67
2017-11-17T04:48:26.886Z,38.57
2017-11-17T04:49:27.490Z,38.57
2017-11-17T04:50:28.104Z,38.57
2017-11-17T04:51:28.727Z,38.57
2017-11-17T04:52:29.329Z,38.48
2017-11-17T04:53:29.934Z,38.57
2017-11-17T04:54:30.538Z,38.76
2017-11-17T04:55:31.143Z,38.67
2017-11-17T04:56:31.751Z,38.29
2017-11-17T04:57:32.353Z,38.39
2017-11-17T04:58:32.958Z,38.39
2017-11-17T04:59:33.563Z,38.29
2017-11-17T05:00:34.174Z,38.29
2017-11-17T05:01:34.769Z,38.29
2017-11-17T05:02:35.375Z,38.39
2017-11-17T05:03:35.985Z,38.39
2017-11-17T05:04:36.586Z,38.39
2017-11-17T05:05:37.218Z,38.67
2017-11-17T05:06:37.824Z,38.39
2017-11-17T05:07:38.428Z,38.29
2017-11-17T05:08:39.031Z,38.20
2017-11-17T05:09:39.634Z,38.48
2017-11-17T05:10:40.242Z,38.48
2017-11-17T05:11:40.884Z,38.48
2017-11-17T05:12:41.484Z,38.48
2017-11-17T05:13:42.087Z,38.39
2017-11-17T05:14:42.689Z,38.29
2017-11-17T05:15:43.329Z,38.57
2017-11-17T05:16:43.929Z,38.20
2017-11-17T05:17:44.538Z,38.29
2017-11-17T05:18:45.141Z,38.39
2017-11-17T05:19:45.744Z,38.48
2017-11-17T05:20:46.351Z,38.39
2017-11-17T05:21:46.963Z,38.39
2017-11-17T05:22:47.566Z,38.39
2017-11-17T05:23:48.171Z,38.39
2017-11-17T05:24:48.773Z,38.29
2017-11-17T05:25:49.405Z,38.39
2017-11-17T05:26:50.009Z,38.29
2017-11-17T05:27:50.643Z,38.57
2017-11-17T05:28:51.246Z,38.67
2017-11-17T05:29:51.885Z,38.57
2017-11-17T05:30:52.522Z,38.67
2017-11-17T05:31:53.124Z,38.48
2017-11-17T05:32:53.731Z,38.57
2017-11-17T05:33:54.333Z,38.57
2017-11-17T05:34:54.935Z,38.57
2017-11-17T05:35:55.539Z,38.57
2017-11-17T05:36:56.150Z,38.57
2017-11-17T05:37:56.750Z,38.67
2017-11-17T05:38:57.358Z,38.57
2017-11-17T05:39:57.959Z,38.39
2017-11-17T05:40:58.562Z,38.39
2017-11-17T05:41:59.165Z,38.29
2017-11-17T05:42:59.768Z,38.39
2017-11-17T05:44:00.374Z,38.48
2017-11-17T05:45:00.980Z,38.29
2017-11-17T05:46:01.590Z,38.57
2017-11-17T05:47:02.192Z,38.67
2017-11-17T05:48:02.796Z,38.57
2017-11-17T05:49:03.401Z,38.39
2017-11-17T05:50:04.032Z,38.29
2017-11-17T05:51:04.637Z,38.29
2017-11-17T05:52:05.240Z,38.29
2017-11-17T05:53:05.844Z,38.57
2017-11-17T05:54:06.447Z,38.29
2017-11-17T05:55:07.055Z,38.48
2017-11-17T05:56:07.657Z,38.10
2017-11-17T05:57:08.258Z,38.29
2017-11-17T05:58:08.863Z,38.10
2017-11-17T05:59:09.469Z,38.10
2017-11-17T06:00:10.072Z,38.01
2017-11-17T06:01:10.679Z,38.01
2017-11-17T06:02:11.281Z,38.01
2017-11-17T06:03:11.886Z,37.92
2017-11-17T06:04:12.488Z,38.01
2017-11-17T06:05:13.091Z,38.01
2017-11-17T06:06:13.701Z,38.29
2017-11-17T06:07:14.303Z,38.10
2017-11-17T06:08:14.907Z,38.29
2017-11-17T06:09:15.510Z,38.48
2017-11-17T06:10:16.108Z,38.48
2017-11-17T06:11:16.712Z,38.57
2017-11-17T06:12:17.315Z,38.57
2017-11-17T06:13:17.920Z,38.39
2017-11-17T06:14:18.524Z,38.29
2017-11-17T06:15:19.134Z,38.29
2017-11-17T06:16:19.735Z,38.57
2017-11-17T06:17:20.337Z,38.29
2017-11-17T06:18:20.976Z,38.20
2017-11-17T06:19:21.608Z,37.82
2017-11-17T06:20:22.218Z,38.01
2017-11-17T06:21:22.857Z,37.82
2017-11-17T06:22:23.459Z,38.10
2017-11-17T06:23:24.063Z,38.01
2017-11-17T06:24:24.667Z,37.92
2017-11-17T06:25:25.271Z,38.01
2017-11-17T06:26:25.878Z,37.55
2017-11-17T06:27:26.509Z,37.82
2017-11-17T06:28:27.114Z,37.84
2017-11-17T06:29:27.717Z,37.65
2017-11-17T06:30:28.319Z,37.84
2017-11-17T06:31:28.922Z,37.55
2017-11-17T06:32:29.532Z,37.46
2017-11-17T06:33:30.133Z,37.55
2017-11-17T06:34:30.743Z,37.46
2017-11-17T06:35:31.343Z,37.55
2017-11-17T06:36:31.948Z,37.46
2017-11-17T06:37:32.554Z,37.46
2017-11-17T06:38:33.160Z,37.46
2017-11-17T06:39:33.769Z,37.46
2017-11-17T06:40:34.371Z,37.37
2017-11-17T06:41:34.978Z,37.46
2017-11-17T06:42:35.581Z,37.18
2017-11-17T06:43:36.214Z,36.99
2017-11-17T06:44:36.791Z,36.90
2017-11-17T06:45:37.396Z,36.99
2017-11-17T06:46:38.018Z,36.80
2017-11-17T06:47:38.613Z,36.71
2017-11-17T06:48:39.216Z,36.71
2017-11-17T06:49:39.856Z,36.80
2017-11-17T06:50:40.493Z,36.80
2017-11-17T06:51:41.099Z,36.71
2017-11-17T06:52:41.710Z,36.71
2017-11-17T06:53:42.348Z,36.71
2017-11-17T06:54:42.958Z,36.61
2017-11-17T06:55:43.562Z,36.61
2017-11-17T06:56:44.169Z,36.71
2017-11-17T06:57:44.771Z,36.52
2017-11-17T06:58:45.377Z,36.42
2017-11-17T06:59:45.982Z,36.23
2017-11-17T07:00:46.593Z,36.42
2017-11-17T07:01:47.201Z,36.52
2017-11-17T07:02:47.803Z,36.42
2017-11-17T07:03:48.408Z,36.61
2017-11-17T07:04:49.015Z,36.42
2017-11-17T07:05:49.618Z,36.52
2017-11-17T07:06:50.226Z,36.23
2017-11-17T07:07:50.881Z,36.42
2017-11-17T07:08:51.491Z,36.42
2017-11-17T07:09:52.123Z,36.52
2017-11-17T07:10:52.731Z,36.33
2017-11-17T07:11:53.335Z,36.33
2017-11-17T07:12:53.944Z,36.90
2017-11-17T07:13:54.574Z,36.52
2017-11-17T07:14:55.188Z,36.71
2017-11-17T07:15:55.822Z,36.80
2017-11-17T07:16:56.428Z,36.80
2017-11-17T07:17:57.033Z,36.71
2017-11-17T07:18:57.642Z,36.61
2017-11-17T07:19:58.247Z,36.90
2017-11-17T07:20:58.857Z,36.90
2017-11-17T07:21:59.457Z,37.08
2017-11-17T07:23:00.061Z,36.99
2017-11-17T07:24:00.668Z,37.27
2017-11-17T07:25:01.283Z,37.18
2017-11-17T07:26:01.890Z,37.27
2017-11-17T07:27:02.496Z,37.08
2017-11-17T07:28:03.095Z,37.18
2017-11-17T07:29:03.732Z,37.46
2017-11-17T07:30:04.373Z,37.55
2017-11-17T07:31:04.975Z,37.55
2017-11-17T07:32:05.588Z,37.55
2017-11-17T07:33:06.192Z,37.65
2017-11-17T07:34:06.799Z,37.65
2017-11-17T07:35:07.404Z,37.74
2017-11-17T07:36:08.019Z,37.84
2017-11-17T07:37:08.624Z,37.84
2017-11-17T07:38:09.229Z,37.84
2017-11-17T07:39:09.867Z,37.65
2017-11-17T07:40:10.475Z,38.03
2017-11-17T07:41:11.080Z,37.84
2017-11-17T07:42:11.687Z,37.93
2017-11-17T07:43:12.293Z,38.03
2017-11-17T07:44:12.899Z,38.14
2017-11-17T07:45:13.512Z,38.24
2017-11-17T07:46:14.121Z,38.24
2017-11-17T07:47:14.731Z,38.24
2017-11-17T07:48:15.335Z,38.24
2017-11-17T07:49:15.977Z,38.24
2017-11-17T07:50:16.622Z,38.24
2017-11-17T07:51:17.227Z,38.24
2017-11-17T07:52:17.833Z,38.24
2017-11-17T07:53:18.440Z,38.24
2017-11-17T07:54:19.044Z,38.14
2017-11-17T07:55:19.649Z,38.24
2017-11-17T07:56:20.257Z,38.24
2017-11-17T07:57:20.867Z,38.14
2017-11-17T07:58:21.475Z,38.14
2017-11-17T07:59:22.081Z,38.05
2017-11-17T08:00:22.696Z,38.14
2017-11-17T08:01:23.301Z,38.52
2017-11-17T08:02:23.908Z,38.52
2017-11-17T08:03:24.522Z,38.62
2017-11-17T08:04:25.127Z,38.43
2017-11-17T08:05:25.740Z,38.62
2017-11-17T08:06:26.345Z,38.52
2017-11-17T08:07:26.951Z,38.43
2017-11-17T08:08:27.560Z,38.43
2017-11-17T08:09:28.203Z,38.43
2017-11-17T08:10:28.815Z,38.33
2017-11-17T08:11:29.423Z,38.52
2017-11-17T08:12:30.029Z,38.62
2017-11-17T08:13:30.638Z,38.43
2017-11-17T08:14:31.246Z,38.45
2017-11-17T08:15:31.854Z,38.35
2017-11-17T08:16:32.468Z,38.52
2017-11-17T08:17:33.075Z,38.35
2017-11-17T08:18:33.685Z,38.64
2017-11-17T08:19:34.329Z,38.35
2017-11-17T08:20:34.933Z,38.54
2017-11-17T08:21:35.546Z,38.45
2017-11-17T08:22:36.150Z,38.45
2017-11-17T08:23:36.758Z,38.35
2017-11-17T08:24:37.367Z,38.54
2017-11-17T08:25:38.006Z,38.26
2017-11-17T08:26:38.615Z,38.16
2017-11-17T08:27:39.225Z,37.97
2017-11-17T08:28:39.833Z,37.78
2017-11-17T08:29:40.446Z,37.78
2017-11-17T08:30:41.057Z,37.88
2017-11-17T08:31:41.669Z,37.69
2017-11-17T08:32:42.276Z,37.88
2017-11-17T08:33:42.890Z,37.78
2017-11-17T08:34:43.496Z,37.88
2017-11-17T08:35:44.111Z,37.97
2017-11-17T08:36:44.717Z,37.97
2017-11-17T08:37:45.329Z,38.07
2017-11-17T08:38:45.967Z,38.16
2017-11-17T08:39:46.583Z,38.07
2017-11-17T08:40:47.193Z,37.99
2017-11-17T08:41:47.801Z,37.80
2017-11-17T08:42:48.417Z,37.71
2017-11-17T08:43:49.046Z,37.90
2017-11-17T08:44:49.660Z,37.80
2017-11-17T08:45:50.269Z,37.99
2017-11-17T08:46:50.876Z,38.28
2017-11-17T08:47:51.491Z,38.18
2017-11-17T08:48:52.096Z,38.28
2017-11-17T08:49:52.710Z,38.18
2017-11-17T08:50:53.321Z,38.09
2017-11-17T08:51:53.926Z,38.18
2017-11-17T08:52:54.543Z,37.71
2017-11-17T08:53:55.183Z,37.90
2017-11-17T08:54:55.796Z,38.09
2017-11-17T08:55:56.401Z,38.28
2017-11-17T08:56:57.020Z,38.28
2017-11-17T08:57:57.619Z,38.65
2017-11-17T08:58:58.227Z,38.75
2017-11-17T08:59:58.837Z,38.84
2017-11-17T09:00:59.446Z,38.65
2017-11-17T09:02:00.053Z,38.67
2017-11-17T09:03:00.664Z,38.56
2017-11-17T09:04:01.271Z,38.01
2017-11-17T09:05:01.920Z,38.01
2017-11-17T09:06:02.527Z,38.01
2017-11-17T09:07:03.130Z,37.73
2017-11-17T09:08:03.769Z,37.73
2017-11-17T09:09:04.378Z,37.63
2017-11-17T09:10:04.989Z,37.44
2017-11-17T09:11:05.599Z,37.25
2017-11-17T09:12:06.206Z,37.63
2017-11-17T09:13:06.816Z,37.25
2017-11-17T09:14:07.431Z,37.16
2017-11-17T09:15:08.036Z,37.25
2017-11-17T09:16:08.646Z,37.44
2017-11-17T09:17:09.256Z,37.06
2017-11-17T09:18:09.870Z,37.16
2017-11-17T09:19:10.474Z,37.16
2017-11-17T09:20:11.086Z,37.16
2017-11-17T09:21:11.700Z,37.63
2017-11-17T09:22:12.315Z,37.63
2017-11-17T09:23:12.928Z,37.06
2017-11-17T09:24:13.536Z,37.46
2017-11-17T09:25:14.148Z,37.55
2017-11-17T09:26:14.760Z,37.55
2017-11-17T09:27:15.365Z,37.65
2017-11-17T09:28:15.988Z,37.37
2017-11-17T09:29:16.622Z,36.99
2017-11-17T09:30:17.239Z,36.89
2017-11-17T09:31:17.841Z,36.80
2017-11-17T09:32:18.451Z,36.61
2017-11-17T09:33:19.061Z,36.44
2017-11-17T09:34:19.701Z,36.42
2017-11-17T09:35:20.314Z,36.34
2017-11-17T09:36:20.957Z,36.34
2017-11-17T09:37:21.580Z,36.44
2017-11-17T09:38:22.181Z,36.63
2017-11-17T09:39:22.796Z,36.53
2017-11-17T09:40:23.415Z,35.98
2017-11-17T09:41:24.022Z,35.49
2017-11-17T09:42:24.634Z,35.58
2017-11-17T09:43:25.249Z,35.39
2017-11-17T09:44:25.861Z,35.50
2017-11-17T09:45:26.473Z,35.50
2017-11-17T09:46:27.082Z,36.07
2017-11-17T09:47:27.696Z,36.17
2017-11-17T09:48:28.309Z,35.41
2017-11-17T09:49:28.926Z,35.41
2017-11-17T09:50:29.533Z,35.22
2017-11-17T09:51:30.159Z,35.14
2017-11-17T09:52:30.764Z,34.86
2017-11-17T09:53:31.377Z,34.76
2017-11-17T09:54:31.989Z,34.95
2017-11-17T09:55:32.601Z,34.57
2017-11-17T09:56:33.212Z,34.29
2017-11-17T09:57:33.823Z,33.53
2017-11-17T09:58:34.443Z,33.44
2017-11-17T09:59:35.087Z,33.44
2017-11-17T10:00:35.706Z,33.44
2017-11-17T10:01:36.314Z,33.72
2017-11-17T10:02:36.926Z,33.44
2017-11-17T10:03:37.537Z,33.62
2017-11-17T10:04:38.150Z,33.53
2017-11-17T10:05:38.764Z,33.62
2017-11-17T10:06:39.381Z,33.24
2017-11-17T10:07:39.995Z,33.53
2017-11-17T10:08:40.607Z,33.44
2017-11-17T10:09:41.251Z,33.53
2017-11-17T10:10:41.872Z,33.81
2017-11-17T10:11:42.515Z,33.45
2017-11-17T10:12:43.130Z,33.64
2017-11-17T10:13:43.773Z,33.45
2017-11-17T10:14:44.385Z,33.64
2017-11-17T10:15:45.003Z,33.36
2017-11-17T10:16:45.613Z,33.64
2017-11-17T10:17:46.225Z,33.26
2017-11-17T10:18:46.839Z,33.36
2017-11-17T10:19:47.467Z,33.07
2017-11-17T10:20:48.069Z,33.65
2017-11-17T10:21:48.712Z,33.56
2017-11-17T10:22:49.361Z,33.47
2017-11-17T10:23:49.978Z,32.90
2017-11-17T10:24:50.588Z,32.70
2017-11-17T10:25:51.199Z,33.18
2017-11-17T10:26:51.819Z,33.47
2017-11-17T10:27:52.460Z,33.09
2017-11-17T10:28:53.074Z,33.28
2017-11-17T10:29:53.685Z,33.37
2017-11-17T10:30:54.304Z,33.18
2017-11-17T10:31:54.954Z,32.42
2017-11-17T10:32:55.590Z,32.80
2017-11-17T10:33:56.205Z,32.32
2017-11-17T10:34:56.868Z,32.14
2017-11-17T10:35:57.483Z,32.42
2017-11-17T10:36:58.100Z,32.42
2017-11-17T10:37:58.741Z,32.42
2017-11-17T10:38:59.353Z,32.04
2017-11-17T10:39:59.971Z,32.04
2017-11-17T10:41:00.580Z,32.14
2017-11-17T10:42:01.193Z,32.14
2017-11-17T10:43:01.837Z,32.15
2017-11-17T10:44:02.448Z,31.56
2017-11-17T10:45:03.062Z,31.95
2017-11-17T10:46:03.707Z,32.04
2017-11-17T10:47:04.320Z,32.15
2017-11-17T10:48:04.949Z,32.24
2017-11-17T10:49:05.597Z,32.06
2017-11-17T10:50:06.208Z,32.06
2017-11-17T10:51:06.827Z,32.43
2017-11-17T10:52:07.437Z,32.34
2017-11-17T10:53:08.053Z,32.34
2017-11-17T10:54:08.667Z,32.24
2017-11-17T10:55:09.340Z,32.43
2017-11-17T10:56:09.950Z,32.53
2017-11-17T10:57:10.566Z,32.34
2017-11-17T10:58:11.175Z,32.34
2017-11-17T10:59:11.795Z,32.53
2017-11-17T11:00:12.407Z,32.62
2017-11-17T11:01:13.020Z,32.83
2017-11-17T11:02:13.641Z,32.83
2017-11-17T11:03:14.281Z,32.45
2017-11-17T11:04:14.894Z,32.45
2017-11-17T11:05:15.509Z,32.17
2017-11-17T11:06:16.161Z,31.88
2017-11-17T11:07:16.771Z,31.88
2017-11-17T11:08:17.412Z,32.17
2017-11-17T11:09:18.058Z,32.35
2017-11-17T11:10:18.674Z,32.45
2017-11-17T11:11:19.288Z,32.45
2017-11-17T11:12:19.902Z,32.17
2017-11-17T11:13:20.546Z,32.64
2017-11-17T11:14:21.159Z,32.64
2017-11-17T11:15:21.823Z,31.69
2017-11-17T11:16:22.437Z,31.50
2017-11-17T11:17:23.056Z,31.68
2017-11-17T11:18:23.670Z,32.06
2017-11-17T11:19:24.290Z,32.24
2017-11-17T11:20:24.907Z,32.45
2017-11-17T11:21:25.518Z,32.17
2017-11-17T11:22:26.131Z,32.34
2017-11-17T11:23:26.747Z,32.24
2017-11-17T11:24:27.361Z,32.43
2017-11-17T11:25:28.027Z,32.64
2017-11-17T11:26:28.643Z,32.45
2017-11-17T11:27:29.261Z,32.45
2017-11-17T11:28:29.876Z,32.64
2017-11-17T11:29:30.488Z,32.28
2017-11-17T11:30:31.110Z,31.71
2017-11-17T11:31:31.728Z,31.42
2017-11-17T11:32:32.342Z,31.71
2017-11-17T11:33:32.988Z,31.80
2017-11-17T11:34:33.616Z,31.90
2017-11-17T11:35:34.224Z,32.10
2017-11-17T11:36:34.841Z,31.44
2017-11-17T11:37:35.457Z,31.23
2017-11-17T11:38:36.073Z,30.57
2017-11-17T11:39:36.687Z,30.94
2017-11-17T11:40:37.304Z,30.37
2017-11-17T11:41:37.920Z,31.04
2017-11-17T11:42:38.540Z,31.32
2017-11-17T11:43:39.161Z,31.23
2017-11-17T11:44:39.769Z,31.32
2017-11-17T11:45:40.393Z,31.42
2017-11-17T11:46:41.009Z,31.13
2017-11-17T11:47:41.629Z,30.94
2017-11-17T11:48:42.241Z,31.32
2017-11-17T11:49:42.857Z,31.23
2017-11-17T11:50:43.473Z,31.32
2017-11-17T11:51:44.094Z,31.32
2017-11-17T11:52:44.708Z,31.32
2017-11-17T11:53:45.327Z,31.32
2017-11-17T11:54:45.942Z,30.93
2017-11-17T11:55:46.556Z,31.40
2017-11-17T11:56:47.202Z,31.69
2017-11-17T11:57:47.818Z,32.07
2017-11-17T11:58:48.436Z,31.69
2017-11-17T11:59:49.049Z,31.50
2017-11-17T12:00:49.665Z,31.69
2017-11-17T12:01:50.282Z,31.98
2017-11-17T12:02:50.930Z,32.07
2017-11-17T12:03:51.543Z,31.98
2017-11-17T12:04:52.189Z,32.26
2017-11-17T12:05:52.835Z,32.37
2017-11-17T12:06:53.451Z,32.28
2017-11-17T12:07:54.068Z,32.47
2017-11-17T12:08:54.681Z,32.20
2017-11-17T12:09:55.297Z,31.82
2017-11-17T12:10:55.914Z,31.80
2017-11-17T12:11:56.529Z,31.80
2017-11-17T12:12:57.147Z,31.92
2017-11-17T12:13:57.762Z,31.92
2017-11-17T12:14:58.377Z,31.34
2017-11-17T12:15:58.995Z,30.39
2017-11-17T12:16:59.611Z,30.57
2017-11-17T12:18:00.230Z,30.94
2017-11-17T12:19:00.842Z,30.94
2017-11-17T12:20:01.487Z,31.04
2017-11-17T12:21:02.104Z,30.85
2017-11-17T12:22:02.721Z,30.83
2017-11-17T12:23:03.337Z,31.61
2017-11-17T12:24:03.967Z,31.69
2017-11-17T12:25:04.569Z,32.07
2017-11-17T12:26:05.186Z,31.69
2017-11-17T12:27:05.800Z,31.98
2017-11-17T12:28:06.418Z,31.60
2017-11-17T12:29:07.032Z,31.79
2017-11-17T12:30:07.648Z,31.98
2017-11-17T12:31:08.263Z,31.98
2017-11-17T12:32:08.882Z,32.17
2017-11-17T12:33:09.497Z,32.17
2017-11-17T12:34:10.117Z,32.64
2017-11-17T12:35:10.738Z,32.85
2017-11-17T12:36:11.359Z,32.85
2017-11-17T12:37:12.003Z,32.47
2017-11-17T12:38:12.620Z,32.95
2017-11-17T12:39:13.236Z,32.39
2017-11-17T12:40:13.853Z,32.29
2017-11-17T12:41:14.469Z,32.20
2017-11-17T12:42:15.084Z,32.01
2017-11-17T12:43:15.736Z,32.01
2017-11-17T12:44:16.354Z,32.20
2017-11-17T12:45:16.969Z,32.10
2017-11-17T12:46:17.587Z,31.52
2017-11-17T12:47:18.203Z,31.32
2017-11-17T12:48:18.846Z,31.40
2017-11-17T12:49:19.464Z,31.79
2017-11-17T12:50:20.082Z,32.45
2017-11-17T12:51:20.703Z,33.12
2017-11-17T12:52:21.323Z,33.97
2017-11-17T12:53:21.936Z,33.42
2017-11-17T12:54:22.583Z,33.80
2017-11-17T12:55:23.199Z,33.14
2017-11-17T12:56:23.844Z,33.23
2017-11-17T12:57:24.472Z,33.06
2017-11-17T12:58:25.081Z,32.77
2017-11-17T12:59:25.698Z,32.10
2017-11-17T13:00:26.350Z,32.01